hwlogo.jpg (8581 bytes)
Home Your Weather Products Services Weather On Your Site Contact
HW Version Logo
Weather Info
Your Weather (Options)
Canadian Weather
International Weather
Enter your " Place, State", US Zip Code or ICAO:  
Forecast Information Radar Information
Marys Harbour, Newfoundland, Canada  Lat: 52.28N, Lon: 55.83W
ICAO Used: CYAY
Current Conditions
Updated:
Sun & Moon Information:
Temp: N/A
Humidity: N/A
Wind Speed: N/A
Barometer: N/A
Dewpoint: N/A
Heat Index: N/A
Wind Chill: N/A
Civil Twilight: 6:39 AM ADT Moon Phase:
New Moon
New Moon
Sunrise: 7:13 AM ADT
Sunset: 5:40 PM ADT
Civil Twilight: 6:15 PM ADT
Forecast for Marys Harbour, NF, Canada:
(Forecast based on TAF for )
0441 PM ADT MON NOV 06 2006
  
AFTERNOONEVENING
PARTLY CLOUDYPARTLY CLOUDY
Partly
Cloudy
Partly
Cloudy
TAF based forecast:
Dated: 0441 PM ADT MON NOV 06 2006
Afternoon...Partly cloudy with winds from the west at 6 mph.
Evening...Partly cloudy with winds from the west at 6 mph.
Original Encoded TAF:
Dated: 0441 PM ADT MON NOV 06 2006
2006/11/06 19:41
CYAY 061941Z 062024 27005KT P6SM FEW020 SCT060=


  Powered By HAMweather.
Copyright 2001 - 2003 HAMweather, LLC, all rights reserved.
US Forecasts are Public Domain and derived from the
National Weather Service - (IWIN) and the National Oceanic Atmospheric Administration (NOAA)
Canadian forecasts are obtained from and are copyright of Environment Canada.